sensor_id;sensor_type;location;lat;lon;timestamp;temperature;humidity
23609;DHT22;11982;50.810;4.442;2023-11-21T00:00:26;10.30;99.90
23609;DHT22;11982;50.810;4.442;2023-11-21T00:02:51;10.40;99.90
23609;DHT22;11982;50.810;4.442;2023-11-21T00:05:17;10.40;99.90
23609;DHT22;11982;50.810;4.442;2023-11-21T00:07:43;10.40;99.90
23609;DHT22;11982;50.810;4.442;2023-11-21T00:10:10;10.40;99.90
23609;DHT22;11982;50.810;4.442;2023-11-21T00:12:36;10.50;99.90
23609;DHT22;11982;50.810;4.442;2023-11-21T00:15:02;10.70;99.90
23609;DHT22;11982;50.810;4.442;2023-11-21T00:17:28;10.50;99.90
23609;DHT22;11982;50.810;4.442;2023-11-21T00:19:54;10.30;99.90
23609;DHT22;11982;50.810;4.442;2023-11-21T00:22:20;10.00;99.90
23609;DHT22;11982;50.810;4.442;2023-11-21T00:24:48;10.00;99.90
23609;DHT22;11982;50.810;4.442;2023-11-21T00:27:14;10.00;99.90
23609;DHT22;11982;50.810;4.442;2023-11-21T00:29:40;9.90;99.90
23609;DHT22;11982;50.810;4.442;2023-11-21T00:32:06;9.70;99.90
23609;DHT22;11982;50.810;4.442;2023-11-21T00:34:32;9.60;99.90
23609;DHT22;11982;50.810;4.442;2023-11-21T00:36:58;9.50;99.90
23609;DHT22;11982;50.810;4.442;2023-11-21T00:39:24;9.40;99.90
23609;DHT22;11982;50.810;4.442;2023-11-21T00:41:52;9.40;99.90
23609;DHT22;11982;50.810;4.442;2023-11-21T00:44:18;9.40;99.90
23609;DHT22;11982;50.810;4.442;2023-11-21T00:46:44;9.40;99.90
23609;DHT22;11982;50.810;4.442;2023-11-21T00:49:10;9.30;99.90
23609;DHT22;11982;50.810;4.442;2023-11-21T00:51:35;9.30;99.90
23609;DHT22;11982;50.810;4.442;2023-11-21T00:54:02;9.20;99.90
23609;DHT22;11982;50.810;4.442;2023-11-21T00:56:28;9.20;99.90
23609;DHT22;11982;50.810;4.442;2023-11-21T00:58:53;9.20;99.90
23609;DHT22;11982;50.810;4.442;2023-11-21T01:01:20;9.10;99.90
23609;DHT22;11982;50.810;4.442;2023-11-21T01:03:47;9.00;99.90
23609;DHT22;11982;50.810;4.442;2023-11-21T01:06:13;9.00;99.90
23609;DHT22;11982;50.810;4.442;2023-11-21T01:08:38;9.10;99.90
23609;DHT22;11982;50.810;4.442;2023-11-21T01:11:04;9.10;99.90
23609;DHT22;11982;50.810;4.442;2023-11-21T01:13:33;9.10;99.90
23609;DHT22;11982;50.810;4.442;2023-11-21T01:15:58;9.10;99.90
23609;DHT22;11982;50.810;4.442;2023-11-21T01:18:24;9.30;99.90
23609;DHT22;11982;50.810;4.442;2023-11-21T01:20:54;9.30;99.90
23609;DHT22;11982;50.810;4.442;2023-11-21T01:23:20;9.50;99.90
23609;DHT22;11982;50.810;4.442;2023-11-21T01:25:46;9.60;99.90
23609;DHT22;11982;50.810;4.442;2023-11-21T01:28:12;9.50;99.90
23609;DHT22;11982;50.810;4.442;2023-11-21T01:30:37;9.40;99.90
23609;DHT22;11982;50.810;4.442;2023-11-21T01:33:03;9.50;99.90
23609;DHT22;11982;50.810;4.442;2023-11-21T01:35:29;9.50;99.90
23609;DHT22;11982;50.810;4.442;2023-11-21T01:37:55;9.50;99.90
23609;DHT22;11982;50.810;4.442;2023-11-21T01:40:21;9.60;99.90
23609;DHT22;11982;50.810;4.442;2023-11-21T01:42:47;9.60;99.90
23609;DHT22;11982;50.810;4.442;2023-11-21T01:45:13;9.50;99.90
23609;DHT22;11982;50.810;4.442;2023-11-21T01:47:41;9.60;99.90
23609;DHT22;11982;50.810;4.442;2023-11-21T01:50:12;9.90;99.90
23609;DHT22;11982;50.810;4.442;2023-11-21T01:52:39;10.00;99.90
23609;DHT22;11982;50.810;4.442;2023-11-21T01:55:07;9.80;99.90
23609;DHT22;11982;50.810;4.442;2023-11-21T01:57:38;10.00;99.90
23609;DHT22;11982;50.810;4.442;2023-11-21T02:00:05;10.00;99.90
23609;DHT22;11982;50.810;4.442;2023-11-21T02:02:44;9.90;99.90
23609;DHT22;11982;50.810;4.442;2023-11-21T02:05:16;10.00;99.90
23609;DHT22;11982;50.810;4.442;2023-11-21T02:07:44;9.80;99.90
23609;DHT22;11982;50.810;4.442;2023-11-21T02:10:13;9.70;99.90
23609;DHT22;11982;50.810;4.442;2023-11-21T02:12:43;9.80;99.90
23609;DHT22;11982;50.810;4.442;2023-11-21T02:15:13;9.70;99.90
23609;DHT22;11982;50.810;4.442;2023-11-21T02:17:46;9.70;99.90
23609;DHT22;11982;50.810;4.442;2023-11-21T02:20:22;9.70;99.90
23609;DHT22;11982;50.810;4.442;2023-11-21T02:22:54;9.70;99.90
23609;DHT22;11982;50.810;4.442;2023-11-21T02:25:30;9.70;99.90
23609;DHT22;11982;50.810;4.442;2023-11-21T02:27:57;9.60;99.90
23609;DHT22;11982;50.810;4.442;2023-11-21T02:30:23;9.50;99.90
23609;DHT22;11982;50.810;4.442;2023-11-21T02:32:51;9.50;99.90
23609;DHT22;11982;50.810;4.442;2023-11-21T02:35:20;9.50;99.90
23609;DHT22;11982;50.810;4.442;2023-11-21T02:37:49;9.40;99.90
23609;DHT22;11982;50.810;4.442;2023-11-21T02:40:15;9.40;99.90
23609;DHT22;11982;50.810;4.442;2023-11-21T02:42:47;9.40;99.90
23609;DHT22;11982;50.810;4.442;2023-11-21T02:45:14;9.40;99.90
23609;DHT22;11982;50.810;4.442;2023-11-21T02:47:42;9.40;99.90
23609;DHT22;11982;50.810;4.442;2023-11-21T02:50:09;9.30;99.90
23609;DHT22;11982;50.810;4.442;2023-11-21T02:52:35;9.20;99.90
23609;DHT22;11982;50.810;4.442;2023-11-21T02:55:04;9.20;99.90
23609;DHT22;11982;50.810;4.442;2023-11-21T02:57:30;9.20;99.90
23609;DHT22;11982;50.810;4.442;2023-11-21T02:59:56;9.20;99.90
23609;DHT22;11982;50.810;4.442;2023-11-21T03:02:22;9.20;99.90
23609;DHT22;11982;50.810;4.442;2023-11-21T03:04:48;9.30;99.90
23609;DHT22;11982;50.810;4.442;2023-11-21T03:07:17;9.50;99.90
23609;DHT22;11982;50.810;4.442;2023-11-21T03:09:47;9.70;99.90
23609;DHT22;11982;50.810;4.442;2023-11-21T03:12:13;10.00;99.90
23609;DHT22;11982;50.810;4.442;2023-11-21T03:14:39;9.90;99.90
23609;DHT22;11982;50.810;4.442;2023-11-21T03:17:05;9.90;99.90
23609;DHT22;11982;50.810;4.442;2023-11-21T03:19:32;9.80;99.90
23609;DHT22;11982;50.810;4.442;2023-11-21T03:21:57;9.80;99.90
23609;DHT22;11982;50.810;4.442;2023-11-21T03:24:24;9.80;99.90
23609;DHT22;11982;50.810;4.442;2023-11-21T03:26:50;9.80;99.90
23609;DHT22;11982;50.810;4.442;2023-11-21T03:32:23;9.60;99.90
23609;DHT22;11982;50.810;4.442;2023-11-21T03:34:56;9.70;99.90
23609;DHT22;11982;50.810;4.442;2023-11-21T03:37:23;9.70;99.90
23609;DHT22;11982;50.810;4.442;2023-11-21T03:39:50;9.70;99.90
23609;DHT22;11982;50.810;4.442;2023-11-21T03:42:16;9.70;99.90
23609;DHT22;11982;50.810;4.442;2023-11-21T03:44:42;10.00;99.90
23609;DHT22;11982;50.810;4.442;2023-11-21T03:47:07;10.10;99.90
23609;DHT22;11982;50.810;4.442;2023-11-21T03:49:33;10.20;99.90
23609;DHT22;11982;50.810;4.442;2023-11-21T03:51:59;10.40;99.90
23609;DHT22;11982;50.810;4.442;2023-11-21T03:54:24;10.50;99.90
23609;DHT22;11982;50.810;4.442;2023-11-21T03:56:50;10.50;99.90
23609;DHT22;11982;50.810;4.442;2023-11-21T03:59:17;10.30;99.90
23609;DHT22;11982;50.810;4.442;2023-11-21T04:01:43;10.00;99.90
23609;DHT22;11982;50.810;4.442;2023-11-21T04:04:08;10.00;99.90
23609;DHT22;11982;50.810;4.442;2023-11-21T04:06:34;9.90;99.90
23609;DHT22;11982;50.810;4.442;2023-11-21T04:09:01;9.90;99.90
23609;DHT22;11982;50.810;4.442;2023-11-21T04:11:27;9.90;99.90
23609;DHT22;11982;50.810;4.442;2023-11-21T04:13:55;9.70;99.90
23609;DHT22;11982;50.810;4.442;2023-11-21T04:16:21;9.60;99.90
23609;DHT22;11982;50.810;4.442;2023-11-21T04:18:46;9.50;99.90
23609;DHT22;11982;50.810;4.442;2023-11-21T04:21:12;9.60;99.90
23609;DHT22;11982;50.810;4.442;2023-11-21T04:23:37;9.60;99.90
23609;DHT22;11982;50.810;4.442;2023-11-21T04:26:05;9.50;99.90
23609;DHT22;11982;50.810;4.442;2023-11-21T04:28:31;9.50;99.90
23609;DHT22;11982;50.810;4.442;2023-11-21T04:30:56;9.60;99.90
23609;DHT22;11982;50.810;4.442;2023-11-21T04:33:22;9.60;99.90
23609;DHT22;11982;50.810;4.442;2023-11-21T04:35:48;9.60;99.90
23609;DHT22;11982;50.810;4.442;2023-11-21T04:38:13;9.80;99.90
23609;DHT22;11982;50.810;4.442;2023-11-21T04:40:39;9.70;99.90
23609;DHT22;11982;50.810;4.442;2023-11-21T04:43:05;9.80;99.90
23609;DHT22;11982;50.810;4.442;2023-11-21T04:45:31;10.00;99.90
23609;DHT22;11982;50.810;4.442;2023-11-21T04:47:56;10.10;99.90
23609;DHT22;11982;50.810;4.442;2023-11-21T04:50:22;10.30;99.90
23609;DHT22;11982;50.810;4.442;2023-11-21T04:52:48;10.30;99.90
23609;DHT22;11982;50.810;4.442;2023-11-21T04:55:13;10.50;99.90
23609;DHT22;11982;50.810;4.442;2023-11-21T04:57:40;10.70;99.90
23609;DHT22;11982;50.810;4.442;2023-11-21T05:00:08;10.80;99.90
23609;DHT22;11982;50.810;4.442;2023-11-21T05:02:34;10.50;99.90
23609;DHT22;11982;50.810;4.442;2023-11-21T05:05:01;10.40;99.90
23609;DHT22;11982;50.810;4.442;2023-11-21T05:07:26;10.50;99.90
23609;DHT22;11982;50.810;4.442;2023-11-21T05:09:54;10.20;99.90
23609;DHT22;11982;50.810;4.442;2023-11-21T05:12:22;10.30;99.90
23609;DHT22;11982;50.810;4.442;2023-11-21T05:14:51;10.30;99.90
23609;DHT22;11982;50.810;4.442;2023-11-21T05:17:17;10.30;99.90
23609;DHT22;11982;50.810;4.442;2023-11-21T05:19:42;10.40;99.90
23609;DHT22;11982;50.810;4.442;2023-11-21T05:22:10;10.30;99.90
23609;DHT22;11982;50.810;4.442;2023-11-21T05:24:37;10.20;99.90
23609;DHT22;11982;50.810;4.442;2023-11-21T05:27:04;10.10;99.90
23609;DHT22;11982;50.810;4.442;2023-11-21T05:29:30;10.20;99.90
23609;DHT22;11982;50.810;4.442;2023-11-21T05:31:56;10.20;99.90
23609;DHT22;11982;50.810;4.442;2023-11-21T05:34:22;10.10;99.90
23609;DHT22;11982;50.810;4.442;2023-11-21T05:36:50;10.00;99.90
23609;DHT22;11982;50.810;4.442;2023-11-21T05:39:15;10.00;99.90
23609;DHT22;11982;50.810;4.442;2023-11-21T05:41:43;10.20;99.90
23609;DHT22;11982;50.810;4.442;2023-11-21T05:44:08;10.10;99.90
23609;DHT22;11982;50.810;4.442;2023-11-21T05:46:35;10.30;99.90
23609;DHT22;11982;50.810;4.442;2023-11-21T05:49:00;10.50;99.90
23609;DHT22;11982;50.810;4.442;2023-11-21T05:51:26;10.60;99.90
23609;DHT22;11982;50.810;4.442;2023-11-21T05:53:51;10.80;99.90
23609;DHT22;11982;50.810;4.442;2023-11-21T05:56:17;10.80;99.90
23609;DHT22;11982;50.810;4.442;2023-11-21T05:58:43;10.60;99.90
23609;DHT22;11982;50.810;4.442;2023-11-21T06:01:09;10.30;99.90
23609;DHT22;11982;50.810;4.442;2023-11-21T06:03:38;10.30;99.90
23609;DHT22;11982;50.810;4.442;2023-11-21T06:06:04;10.10;99.90
23609;DHT22;11982;50.810;4.442;2023-11-21T06:08:30;10.00;99.90
23609;DHT22;11982;50.810;4.442;2023-11-21T06:10:56;9.90;99.90
23609;DHT22;11982;50.810;4.442;2023-11-21T06:13:21;10.00;99.90
23609;DHT22;11982;50.810;4.442;2023-11-21T06:15:50;9.90;99.90
23609;DHT22;11982;50.810;4.442;2023-11-21T06:18:16;9.80;99.90
23609;DHT22;11982;50.810;4.442;2023-11-21T06:20:47;9.70;99.90
23609;DHT22;11982;50.810;4.442;2023-11-21T06:23:13;9.80;99.90
23609;DHT22;11982;50.810;4.442;2023-11-21T06:25:39;9.90;99.90
23609;DHT22;11982;50.810;4.442;2023-11-21T06:28:06;10.00;99.90
23609;DHT22;11982;50.810;4.442;2023-11-21T06:30:31;9.90;99.90
23609;DHT22;11982;50.810;4.442;2023-11-21T06:32:57;10.10;99.90
23609;DHT22;11982;50.810;4.442;2023-11-21T06:35:23;10.10;99.90
23609;DHT22;11982;50.810;4.442;2023-11-21T06:37:49;10.10;99.90
23609;DHT22;11982;50.810;4.442;2023-11-21T06:40:15;10.30;99.90
23609;DHT22;11982;50.810;4.442;2023-11-21T06:42:41;10.60;99.90
23609;DHT22;11982;50.810;4.442;2023-11-21T06:45:07;10.60;99.90
23609;DHT22;11982;50.810;4.442;2023-11-21T06:47:33;10.50;99.90
23609;DHT22;11982;50.810;4.442;2023-11-21T06:50:00;10.60;99.90
23609;DHT22;11982;50.810;4.442;2023-11-21T06:52:26;10.40;99.90
23609;DHT22;11982;50.810;4.442;2023-11-21T06:54:52;10.20;99.90
23609;DHT22;11982;50.810;4.442;2023-11-21T06:57:17;10.10;99.90
23609;DHT22;11982;50.810;4.442;2023-11-21T06:59:43;10.10;99.90
23609;DHT22;11982;50.810;4.442;2023-11-21T07:02:09;10.10;99.90
23609;DHT22;11982;50.810;4.442;2023-11-21T07:04:35;10.10;99.90
23609;DHT22;11982;50.810;4.442;2023-11-21T07:07:02;10.10;99.90
23609;DHT22;11982;50.810;4.442;2023-11-21T07:09:28;10.10;99.90
23609;DHT22;11982;50.810;4.442;2023-11-21T07:11:54;10.20;99.90
23609;DHT22;11982;50.810;4.442;2023-11-21T07:14:20;10.30;99.90
23609;DHT22;11982;50.810;4.442;2023-11-21T07:16:47;10.30;99.90
23609;DHT22;11982;50.810;4.442;2023-11-21T07:19:13;10.10;99.90
23609;DHT22;11982;50.810;4.442;2023-11-21T07:21:39;10.10;99.90
23609;DHT22;11982;50.810;4.442;2023-11-21T07:24:06;9.90;99.90
23609;DHT22;11982;50.810;4.442;2023-11-21T07:26:33;9.90;99.90
23609;DHT22;11982;50.810;4.442;2023-11-21T07:29:00;9.90;99.90
23609;DHT22;11982;50.810;4.442;2023-11-21T07:31:26;10.00;99.90
23609;DHT22;11982;50.810;4.442;2023-11-21T07:33:52;9.90;99.90
23609;DHT22;11982;50.810;4.442;2023-11-21T07:36:21;9.90;99.90
23609;DHT22;11982;50.810;4.442;2023-11-21T07:38:48;9.90;99.90
23609;DHT22;11982;50.810;4.442;2023-11-21T07:41:14;9.90;99.90
23609;DHT22;11982;50.810;4.442;2023-11-21T07:43:44;9.90;99.90
23609;DHT22;11982;50.810;4.442;2023-11-21T07:46:26;9.90;99.90
23609;DHT22;11982;50.810;4.442;2023-11-21T07:48:52;9.90;99.90
23609;DHT22;11982;50.810;4.442;2023-11-21T07:51:18;9.90;99.90
23609;DHT22;11982;50.810;4.442;2023-11-21T07:53:44;10.00;99.90
23609;DHT22;11982;50.810;4.442;2023-11-21T07:56:10;10.10;99.90
23609;DHT22;11982;50.810;4.442;2023-11-21T07:58:36;10.20;99.90
23609;DHT22;11982;50.810;4.442;2023-11-21T08:01:03;10.20;99.90
23609;DHT22;11982;50.810;4.442;2023-11-21T08:03:29;10.00;99.90
23609;DHT22;11982;50.810;4.442;2023-11-21T08:05:56;10.00;99.90
23609;DHT22;11982;50.810;4.442;2023-11-21T08:08:22;9.90;99.90
23609;DHT22;11982;50.810;4.442;2023-11-21T08:10:47;10.00;99.90
23609;DHT22;11982;50.810;4.442;2023-11-21T08:13:13;10.00;99.90
23609;DHT22;11982;50.810;4.442;2023-11-21T08:15:41;10.00;99.90
23609;DHT22;11982;50.810;4.442;2023-11-21T08:18:11;10.00;99.90
23609;DHT22;11982;50.810;4.442;2023-11-21T08:20:38;10.00;99.90
23609;DHT22;11982;50.810;4.442;2023-11-21T08:23:05;10.10;99.90
23609;DHT22;11982;50.810;4.442;2023-11-21T08:25:31;10.20;99.90
23609;DHT22;11982;50.810;4.442;2023-11-21T08:27:58;10.20;99.90
23609;DHT22;11982;50.810;4.442;2023-11-21T08:30:24;10.40;99.90
23609;DHT22;11982;50.810;4.442;2023-11-21T08:32:50;10.40;99.90
23609;DHT22;11982;50.810;4.442;2023-11-21T08:35:19;10.40;99.90
23609;DHT22;11982;50.810;4.442;2023-11-21T08:37:45;10.40;99.90
23609;DHT22;11982;50.810;4.442;2023-11-21T08:40:11;10.30;99.90
23609;DHT22;11982;50.810;4.442;2023-11-21T08:42:42;10.30;99.90
23609;DHT22;11982;50.810;4.442;2023-11-21T08:45:08;10.40;99.90
23609;DHT22;11982;50.810;4.442;2023-11-21T08:47:34;10.40;99.90
23609;DHT22;11982;50.810;4.442;2023-11-21T08:50:02;10.50;99.90
23609;DHT22;11982;50.810;4.442;2023-11-21T08:52:28;10.50;99.90
23609;DHT22;11982;50.810;4.442;2023-11-21T08:54:53;10.50;99.90
23609;DHT22;11982;50.810;4.442;2023-11-21T08:57:22;10.50;99.90
23609;DHT22;11982;50.810;4.442;2023-11-21T08:59:48;10.40;99.90
23609;DHT22;11982;50.810;4.442;2023-11-21T09:02:14;10.40;99.90
23609;DHT22;11982;50.810;4.442;2023-11-21T09:04:39;10.50;99.90
23609;DHT22;11982;50.810;4.442;2023-11-21T09:07:05;10.40;99.90
23609;DHT22;11982;50.810;4.442;2023-11-21T09:09:30;10.40;99.90
23609;DHT22;11982;50.810;4.442;2023-11-21T09:11:56;10.50;99.90
23609;DHT22;11982;50.810;4.442;2023-11-21T09:17:22;10.40;99.90
23609;DHT22;11982;50.810;4.442;2023-11-21T09:19:47;10.40;99.90
23609;DHT22;11982;50.810;4.442;2023-11-21T09:22:17;10.60;99.90
23609;DHT22;11982;50.810;4.442;2023-11-21T09:24:43;10.50;99.90
23609;DHT22;11982;50.810;4.442;2023-11-21T09:27:09;10.50;99.90
23609;DHT22;11982;50.810;4.442;2023-11-21T09:29:52;10.60;99.90
23609;DHT22;11982;50.810;4.442;2023-11-21T09:32:32;10.50;99.90
23609;DHT22;11982;50.810;4.442;2023-11-21T09:37:46;10.50;99.90
23609;DHT22;11982;50.810;4.442;2023-11-21T09:40:13;10.40;99.90
23609;DHT22;11982;50.810;4.442;2023-11-21T09:42:55;10.40;99.90
23609;DHT22;11982;50.810;4.442;2023-11-21T09:45:32;10.50;99.90
23609;DHT22;11982;50.810;4.442;2023-11-21T09:48:01;10.50;99.90
23609;DHT22;11982;50.810;4.442;2023-11-21T09:50:27;10.50;99.90
23609;DHT22;11982;50.810;4.442;2023-11-21T09:53:12;10.60;99.90
23609;DHT22;11982;50.810;4.442;2023-11-21T09:55:44;10.60;99.90
23609;DHT22;11982;50.810;4.442;2023-11-21T09:58:13;10.60;99.90
23609;DHT22;11982;50.810;4.442;2023-11-21T10:00:43;10.50;99.90
23609;DHT22;11982;50.810;4.442;2023-11-21T10:03:09;10.60;99.90
23609;DHT22;11982;50.810;4.442;2023-11-21T10:05:36;10.90;99.90
23609;DHT22;11982;50.810;4.442;2023-11-21T10:08:08;10.90;99.90
23609;DHT22;11982;50.810;4.442;2023-11-21T10:10:36;10.90;99.90
23609;DHT22;11982;50.810;4.442;2023-11-21T10:13:04;11.00;99.90
23609;DHT22;11982;50.810;4.442;2023-11-21T10:15:33;11.00;99.90
23609;DHT22;11982;50.810;4.442;2023-11-21T10:18:03;11.30;99.90
23609;DHT22;11982;50.810;4.442;2023-11-21T10:20:31;11.30;99.90
23609;DHT22;11982;50.810;4.442;2023-11-21T10:22:57;11.30;99.90
23609;DHT22;11982;50.810;4.442;2023-11-21T10:25:23;11.40;99.90
23609;DHT22;11982;50.810;4.442;2023-11-21T10:27:49;11.40;99.90
23609;DHT22;11982;50.810;4.442;2023-11-21T10:30:18;11.30;99.90
23609;DHT22;11982;50.810;4.442;2023-11-21T10:32:44;10.90;99.90
23609;DHT22;11982;50.810;4.442;2023-11-21T10:35:10;10.70;99.90
23609;DHT22;11982;50.810;4.442;2023-11-21T10:37:39;10.70;99.90
23609;DHT22;11982;50.810;4.442;2023-11-21T10:40:09;10.70;99.90
23609;DHT22;11982;50.810;4.442;2023-11-21T10:42:41;10.90;99.90
23609;DHT22;11982;50.810;4.442;2023-11-21T10:45:10;10.90;99.90
23609;DHT22;11982;50.810;4.442;2023-11-21T10:47:42;11.00;99.90
23609;DHT22;11982;50.810;4.442;2023-11-21T10:50:09;11.00;99.90
23609;DHT22;11982;50.810;4.442;2023-11-21T10:52:42;11.10;99.90
23609;DHT22;11982;50.810;4.442;2023-11-21T10:55:18;11.10;99.90
23609;DHT22;11982;50.810;4.442;2023-11-21T10:57:48;11.10;99.90
23609;DHT22;11982;50.810;4.442;2023-11-21T11:00:16;11.10;99.90
23609;DHT22;11982;50.810;4.442;2023-11-21T11:02:46;11.30;99.90
23609;DHT22;11982;50.810;4.442;2023-11-21T11:05:15;11.50;99.90
23609;DHT22;11982;50.810;4.442;2023-11-21T11:08:13;11.40;99.90
23609;DHT22;11982;50.810;4.442;2023-11-21T11:10:38;11.50;99.90
23609;DHT22;11982;50.810;4.442;2023-11-21T11:13:04;11.60;99.90
23609;DHT22;11982;50.810;4.442;2023-11-21T11:15:32;11.60;99.90
23609;DHT22;11982;50.810;4.442;2023-11-21T11:17:59;11.70;99.90
23609;DHT22;11982;50.810;4.442;2023-11-21T11:20:33;11.70;99.90
23609;DHT22;11982;50.810;4.442;2023-11-21T11:26:05;11.90;99.90
23609;DHT22;11982;50.810;4.442;2023-11-21T11:31:11;11.60;99.90
23609;DHT22;11982;50.810;4.442;2023-11-21T11:36:36;11.40;99.90
23609;DHT22;11982;50.810;4.442;2023-11-21T11:39:31;11.30;99.90
23609;DHT22;11982;50.810;4.442;2023-11-21T11:42:02;11.40;99.90
23609;DHT22;11982;50.810;4.442;2023-11-21T11:49:57;11.80;99.90
23609;DHT22;11982;50.810;4.442;2023-11-21T11:55:04;11.80;99.90
23609;DHT22;11982;50.810;4.442;2023-11-21T11:57:31;11.90;99.90
23609;DHT22;11982;50.810;4.442;2023-11-21T12:00:31;11.90;99.90
23609;DHT22;11982;50.810;4.442;2023-11-21T12:03:03;11.80;99.90
23609;DHT22;11982;50.810;4.442;2023-11-21T12:05:33;11.60;99.90
23609;DHT22;11982;50.810;4.442;2023-11-21T12:08:03;11.60;99.90
23609;DHT22;11982;50.810;4.442;2023-11-21T12:10:32;11.50;99.90
23609;DHT22;11982;50.810;4.442;2023-11-21T12:13:00;11.40;99.90
23609;DHT22;11982;50.810;4.442;2023-11-21T12:15:27;11.30;99.90
23609;DHT22;11982;50.810;4.442;2023-11-21T12:17:55;11.30;99.90
23609;DHT22;11982;50.810;4.442;2023-11-21T12:20:23;11.30;99.90
23609;DHT22;11982;50.810;4.442;2023-11-21T12:22:54;11.20;99.90
23609;DHT22;11982;50.810;4.442;2023-11-21T12:25:28;11.10;99.90
23609;DHT22;11982;50.810;4.442;2023-11-21T12:27:58;11.20;99.90
23609;DHT22;11982;50.810;4.442;2023-11-21T12:33:26;11.30;99.90
23609;DHT22;11982;50.810;4.442;2023-11-21T12:35:57;11.30;99.90
23609;DHT22;11982;50.810;4.442;2023-11-21T12:38:24;11.30;99.90
23609;DHT22;11982;50.810;4.442;2023-11-21T12:40:50;11.30;99.90
23609;DHT22;11982;50.810;4.442;2023-11-21T12:43:17;11.10;99.90
23609;DHT22;11982;50.810;4.442;2023-11-21T12:45:43;11.20;99.90
23609;DHT22;11982;50.810;4.442;2023-11-21T12:48:09;11.30;99.90
23609;DHT22;11982;50.810;4.442;2023-11-21T12:50:37;11.30;99.90
23609;DHT22;11982;50.810;4.442;2023-11-21T12:53:06;11.30;99.90
23609;DHT22;11982;50.810;4.442;2023-11-21T12:55:34;11.30;99.90
23609;DHT22;11982;50.810;4.442;2023-11-21T12:58:04;11.30;99.90
23609;DHT22;11982;50.810;4.442;2023-11-21T13:00:44;11.40;99.90
23609;DHT22;11982;50.810;4.442;2023-11-21T13:03:12;11.40;99.90
23609;DHT22;11982;50.810;4.442;2023-11-21T13:05:41;11.40;99.90
23609;DHT22;11982;50.810;4.442;2023-11-21T13:11:16;11.30;99.90
23609;DHT22;11982;50.810;4.442;2023-11-21T13:13:44;11.30;99.90
23609;DHT22;11982;50.810;4.442;2023-11-21T13:16:09;11.50;99.90
23609;DHT22;11982;50.810;4.442;2023-11-21T13:18:35;11.40;99.90
23609;DHT22;11982;50.810;4.442;2023-11-21T13:21:03;11.40;99.90
23609;DHT22;11982;50.810;4.442;2023-11-21T13:23:35;11.30;99.90
23609;DHT22;11982;50.810;4.442;2023-11-21T13:26:04;11.20;99.90
23609;DHT22;11982;50.810;4.442;2023-11-21T13:28:31;11.30;99.90
23609;DHT22;11982;50.810;4.442;2023-11-21T13:31:00;11.40;99.90
23609;DHT22;11982;50.810;4.442;2023-11-21T13:33:37;11.20;99.90
23609;DHT22;11982;50.810;4.442;2023-11-21T13:36:07;11.00;99.90
23609;DHT22;11982;50.810;4.442;2023-11-21T13:38:34;10.90;99.90
23609;DHT22;11982;50.810;4.442;2023-11-21T13:41:01;11.00;99.90
23609;DHT22;11982;50.810;4.442;2023-11-21T13:43:28;11.00;99.90
23609;DHT22;11982;50.810;4.442;2023-11-21T13:45:54;11.00;99.90
23609;DHT22;11982;50.810;4.442;2023-11-21T13:48:38;10.90;99.90
23609;DHT22;11982;50.810;4.442;2023-11-21T13:51:09;10.90;99.90
23609;DHT22;11982;50.810;4.442;2023-11-21T13:53:48;10.80;99.90
23609;DHT22;11982;50.810;4.442;2023-11-21T13:58:58;10.90;99.90
23609;DHT22;11982;50.810;4.442;2023-11-21T14:01:31;10.90;99.90
23609;DHT22;11982;50.810;4.442;2023-11-21T14:04:08;10.90;99.90
23609;DHT22;11982;50.810;4.442;2023-11-21T14:06:49;10.90;99.90
23609;DHT22;11982;50.810;4.442;2023-11-21T14:09:21;11.00;99.90
23609;DHT22;11982;50.810;4.442;2023-11-21T14:11:58;10.90;99.90
23609;DHT22;11982;50.810;4.442;2023-11-21T14:14:26;10.90;99.90
23609;DHT22;11982;50.810;4.442;2023-11-21T14:16:56;10.90;99.90
23609;DHT22;11982;50.810;4.442;2023-11-21T14:19:30;11.00;99.90
23609;DHT22;11982;50.810;4.442;2023-11-21T14:21:57;11.00;99.90
23609;DHT22;11982;50.810;4.442;2023-11-21T14:24:23;11.00;99.90
23609;DHT22;11982;50.810;4.442;2023-11-21T14:26:50;11.10;99.90
23609;DHT22;11982;50.810;4.442;2023-11-21T14:29:17;11.10;99.90
23609;DHT22;11982;50.810;4.442;2023-11-21T14:31:46;11.10;99.90
23609;DHT22;11982;50.810;4.442;2023-11-21T14:34:12;11.10;99.90
23609;DHT22;11982;50.810;4.442;2023-11-21T14:36:39;11.10;99.90
23609;DHT22;11982;50.810;4.442;2023-11-21T14:39:06;11.10;99.90
23609;DHT22;11982;50.810;4.442;2023-11-21T14:41:49;11.00;99.90
23609;DHT22;11982;50.810;4.442;2023-11-21T14:44:15;11.00;99.90
23609;DHT22;11982;50.810;4.442;2023-11-21T14:46:41;10.90;99.90
23609;DHT22;11982;50.810;4.442;2023-11-21T14:49:11;10.90;99.90
23609;DHT22;11982;50.810;4.442;2023-11-21T14:51:51;11.00;99.90
23609;DHT22;11982;50.810;4.442;2023-11-21T14:54:28;10.90;99.90
23609;DHT22;11982;50.810;4.442;2023-11-21T14:57:19;10.90;99.90
23609;DHT22;11982;50.810;4.442;2023-11-21T14:59:50;10.80;99.90
23609;DHT22;11982;50.810;4.442;2023-11-21T15:02:23;10.90;99.90
23609;DHT22;11982;50.810;4.442;2023-11-21T15:05:09;10.90;99.90
23609;DHT22;11982;50.810;4.442;2023-11-21T15:07:40;10.70;99.90
23609;DHT22;11982;50.810;4.442;2023-11-21T15:10:07;10.70;99.90
23609;DHT22;11982;50.810;4.442;2023-11-21T15:12:38;10.70;99.90
23609;DHT22;11982;50.810;4.442;2023-11-21T15:15:05;10.70;99.90
23609;DHT22;11982;50.810;4.442;2023-11-21T15:17:35;10.70;99.90
23609;DHT22;11982;50.810;4.442;2023-11-21T15:20:02;10.70;99.90
23609;DHT22;11982;50.810;4.442;2023-11-21T15:22:29;10.60;99.90
23609;DHT22;11982;50.810;4.442;2023-11-21T15:24:55;10.50;99.90
23609;DHT22;11982;50.810;4.442;2023-11-21T15:27:21;10.60;99.90
23609;DHT22;11982;50.810;4.442;2023-11-21T15:29:47;10.60;99.90
23609;DHT22;11982;50.810;4.442;2023-11-21T15:32:15;10.60;99.90
23609;DHT22;11982;50.810;4.442;2023-11-21T15:34:41;10.60;99.90
23609;DHT22;11982;50.810;4.442;2023-11-21T15:37:07;10.60;99.90
23609;DHT22;11982;50.810;4.442;2023-11-21T15:39:37;10.60;99.90
23609;DHT22;11982;50.810;4.442;2023-11-21T15:42:04;10.50;99.90
23609;DHT22;11982;50.810;4.442;2023-11-21T15:44:32;10.50;99.90
23609;DHT22;11982;50.810;4.442;2023-11-21T15:46:59;10.50;99.90
23609;DHT22;11982;50.810;4.442;2023-11-21T15:49:25;10.50;99.90
23609;DHT22;11982;50.810;4.442;2023-11-21T15:51:53;10.50;99.90
23609;DHT22;11982;50.810;4.442;2023-11-21T15:54:23;10.50;99.90
23609;DHT22;11982;50.810;4.442;2023-11-21T15:56:51;10.50;99.90
23609;DHT22;11982;50.810;4.442;2023-11-21T15:59:25;10.50;99.90
23609;DHT22;11982;50.810;4.442;2023-11-21T16:02:00;10.50;99.90
23609;DHT22;11982;50.810;4.442;2023-11-21T16:04:26;10.50;99.90
23609;DHT22;11982;50.810;4.442;2023-11-21T16:06:55;10.40;99.90
23609;DHT22;11982;50.810;4.442;2023-11-21T16:09:21;10.40;99.90
23609;DHT22;11982;50.810;4.442;2023-11-21T16:11:56;10.50;99.90
23609;DHT22;11982;50.810;4.442;2023-11-21T16:14:26;10.40;99.90